x

West Superior - 30nm Ne Of Outer Island, Wi (45006) Wave Buoy

8:50pm - Sun 14th Sep 2014 All times are CDT. -5 hours from GMT.

  • Sig Wave height 2.6ft
  • Peak Period 4s
  • Average Period 4s
  • Wind
    16mph, 18mph gusts
  • Sea Temp 47°f
  • Air Temp 50°f
  • Sea Pressure 1017.2mb
  • West Superior - 30nm Ne Of Outer Island, Wi
  • West Superior - 30nm Ne Of Outer Island, Wi

More Historic Weather Station data

Upgrade to MSW Pro to gain access to the past 30 days of data for over 8000 Wavebouys and Weather Stations around the globe.

Join Pro

Comparision Forecast

View Surf forecast
   
Sun 09/14 8:50pm 2.5ft 4s 4s 16 18 mph 1017.2mb 47f 50f
7:50pm 2.5ft 5s 4s 16 18 mph 1016.7mb 47f 50f
6:50pm 3ft 5s 4s 16 18 mph 1016.2mb 47f 51f
5:50pm 3.5ft 6s 4s 16 18 mph 1016mb 47f 51f
4:50pm 3.5ft 6s 5s 18 20 mph 1015.6mb 47f 51f
2:50pm 4.5ft 6s 5s 18 20 mph 1015.5mb 47f 51f
1:50pm 4.5ft 6s 5s 16 20 mph 1015.5mb 47f 51f
12:50pm 4.5ft 6s 5s 18 20 mph 1015.5mb 47f 51f
11:50am 4.5ft 6s 5s 16 18 mph 1015.5mb 47f 50f
10:50am 4ft 5s 4s 18 20 mph 1015.6mb 47f 50f
9:50am 4.5ft 5s 4s 20 22 mph 1015.6mb 47f 50f
8:50am 4.5ft 6s 5s 20 22 mph 1016mb 47f 49f
7:50am 4ft 5s 4s 20 25 mph 1016.4mb 47f 50f
6:50am 3.5ft 5s 4s 20 25 mph 1016.6mb 48f 50f
5:50am 3ft 4s 4s 16 20 mph 1017.3mb 48f 50f
4:50am 2.5ft 5s 4s 18 20 mph 1018mb 48f 50f
3:50am 2.5ft 4s 4s 16 18 mph 1018.9mb 48f 50f
2:50am 2.5ft 4s 3s 16 18 mph 1019.7mb 48f 50f
1:50am 1.6ft 3s 3s 16 18 mph 1020.5mb 48f 50f
12:50am 1ft 3s 3s 11 13 mph 1021.2mb 48f 50f
Sat 09/13 11:50pm 1ft 3s 3s 9 11 mph 1021.6mb 48f 50f
10:50pm 1ft 4s 3s 11 13 mph 1022.4mb 48f 50f
9:50pm 0.7ft  -  3s 11 13 mph 1022.8mb 48f 50f
8:50pm 1ft 4s 3s 7 9 mph 1023.3mb 48f 49f
7:50pm 1ft 3s 3s 7 9 mph 1023.4mb 48f 49f
6:50pm 1ft 3s 3s 4 7 mph 1023.3mb 49f 49f
5:50pm 1ft 4s 3s 7 9 mph 1023.2mb 49f 50f
4:50pm 1ft 4s 3s 7 9 mph 1023.6mb 49f 50f
3:50pm 1.3ft 4s 3s 7
mph
1024mb 49f 49f
2:50pm 1.3ft 4s 3s 7
mph
1024.5mb 49f 50f
1:50pm 1ft 4s 3s 7
mph
1025.2mb 49f 49f
12:50pm 0.7ft  -  3s 7
mph
1025.4mb 48f 49f
11:50am 1ft 3s 3s 9
mph
1025.9mb 48f 48f
10:50am 1ft 3s 3s 7 9 mph 1026.2mb 48f 49f
9:50am 0.7ft  -  3s 7 9 mph 1026.1mb 48f 48f
8:50am 1ft 3s 3s 7 9 mph 1025.8mb 47f 47f
7:50am 0.7ft  -  3s 7
mph
1025.6mb 47f 47f
6:50am 0.3ft  -  3s 9 11 mph 1025.5mb 47f 48f
5:50am 0.3ft  -  3s 7 9 mph 1025.4mb 48f 48f
4:50am 0.3ft  -  3s 7
mph
1025.4mb 48f 48f
3:50am 0.3ft  -  3s 4 7 mph 1025.3mb 48f 48f
2:50am 0.3ft  -  3s 7
mph
1025.4mb 48f 48f
1:50am 0.3ft  -  3s 4 7 mph 1025.7mb 48f 47f
12:50am 0.3ft  -  3s 4 7 mph 1026mb 48f 48f
Fri 09/12 11:50pm 0.3ft  -  3s 4
mph
1026.2mb 48f 47f
10:50pm 0.3ft  -  3s 4
mph
1026.4mb 48f 47f
9:50pm 0.3ft  -  3s 2
mph
1026.7mb 48f 47f
8:50pm 0.3ft  -  3s 4 7 mph 1026.8mb 49f 47f
7:50pm 0.3ft  -  3s 2 4 mph 1026.8mb 49f 47f
6:50pm 0.3ft  -  3s 4
mph
1027mb 49f 46f
5:50pm 0.3ft  -  3s 4 7 mph 1027.2mb 49f 46f
4:50pm 0.7ft  -  3s  -  2 mph 1027.3mb 49f 48f
3:50pm 0.7ft  -  3s  -  2 mph 1027.7mb 50f 47f
2:50pm 0.7ft  -  3s 4
mph
1027.9mb 49f 46f
1:50pm 0.7ft  -  3s 2 4 mph 1028.8mb 49f 46f
12:50pm 1ft 3s 3s 2
mph
1029.1mb 49f 46f
11:50am 0.7ft  -  3s 4 7 mph 1029.3mb 48f 46f
10:50am 0.7ft  -  3s 7
mph
1029.8mb 47f 46f
9:50am 0.7ft  -  3s 7 9 mph 1030mb 47f 46f
8:50am 0.7ft  -  3s 7
mph
1029.8mb 47f 46f
7:50am 0.7ft  -  3s 9
mph
1029.5mb 47f 46f
6:50am 1ft 5s 3s 4 7 mph 1029.5mb 47f 46f
5:50am 1ft 5s 4s 7
mph
1028.6mb 47f 46f
4:50am 1ft 5s 4s 7
mph
1028.7mb 47f 46f
3:50am 1.3ft 5s 4s 4 7 mph 1028mb 47f 46f
2:50am 1.3ft 5s 4s 4 7 mph 1027.8mb 47f 46f
1:50am 1ft 6s 4s 4 7 mph 1028.3mb 47f 47f
12:50am 1.3ft 5s 5s 7 9 mph 1027.9mb 47f 47f
Thu 09/11 11:50pm 1.3ft 6s 5s 4 7 mph 1027.5mb 47f 47f
10:50pm 1.6ft 6s 5s 7 9 mph 1027.7mb 48f 48f
9:50pm 2ft 6s 5s 4
mph
1027.6mb 48f 47f
8:50pm 2ft 6s 5s 7 9 mph 1027.3mb 48f 47f
7:50pm 2.5ft 6s 5s 7
mph
1026.7mb 48f 47f
6:50pm 2.5ft 6s 5s 7 9 mph 1026.5mb 48f 47f
5:50pm 2.5ft 7s 5s 7
mph
1026.5mb 48f 47f
4:50pm 3.5ft 7s 5s 4 7 mph 1026.1mb 48f 47f
3:50pm 3.5ft 7s 5s 2
mph
1025.9mb 48f 47f
2:50pm 3.5ft 7s 5s 2
mph
1025.7mb 48f 47f
1:50pm 4ft 7s 5s 7 9 mph 1025.5mb 47f 46f
12:50pm 4.5ft 8s 5s 9 11 mph 1025.6mb 47f 46f
11:50am 5ft 8s 5s 11 13 mph 1025.6mb 47f 46f
10:50am 4.5ft 8s 5s 16 18 mph 1025.5mb 47f 46f
9:50am 5ft 8s 5s 13 18 mph 1024.8mb 47f 46f
8:50am 5ft 8s 6s 16 18 mph 1024.1mb 47f 45f
7:50am 5.5ft 8s 6s 18 20 mph 1023.2mb 47f 45f
6:50am 6ft 8s 6s 18 22 mph 1022.3mb 47f 45f
5:50am 6ft 8s 6s 18 22 mph 1021.1mb 47f 46f
4:50am 6.5ft 8s 6s 18 22 mph 1020.3mb 47f 46f
3:50am 7.5ft 9s 6s 20 22 mph 1019.5mb 47f 46f